Time;durP1;ratioP1;P1;durP2;ratioP2;P2;SDS_P1;SDS_P2;PMS_P1;PMS_P2;Temp;Humidity;BMP_temperature;BMP_pressure;BME280_temperature;BME280_humidity;BME280_pressure;Samples;Min_cycle;Max_cycle;Signal;HPM_P1;HPM_P2
2021/09/20 00:01:46;;;;;;;7.47;3.75;;;;;;;;;;4992362;28;20483;-69
2021/09/20 00:04:14;;;;;;;6.70;4.00;;;;;;;;;;4992086;28;20061;-67
2021/09/20 00:06:44;;;;;;;6.38;3.58;;;;;;;;;;4993383;28;20054;-67
2021/09/20 00:09:12;;;;;;;7.25;3.60;;;;;;;;;;4991937;28;20084;-67
2021/09/20 00:11:41;;;;;;;5.10;3.10;;;;;;;;;;4993059;28;20133;-68
2021/09/20 00:14:09;;;;;;;6.25;3.72;;;;;;;;;;4989527;28;21099;-67
2021/09/20 00:16:37;;;;;;;9.45;3.80;;;;;;;;;;4991768;28;20121;-69
2021/09/20 00:19:05;;;;;;;6.00;3.60;;;;;;;;;;4992599;28;20042;-71
2021/09/20 00:21:34;;;;;;;6.68;4.00;;;;;;;;;;4991776;28;20069;-67
2021/09/20 00:24:04;;;;;;;5.97;3.80;;;;;;;;;;4993191;28;20129;-67
2021/09/20 00:26:32;;;;;;;7.35;4.22;;;;;;;;;;4991741;28;20050;-67
2021/09/20 00:29:00;;;;;;;8.23;3.95;;;;;;;;;;4990966;28;20145;-67
2021/09/20 00:31:28;;;;;;;5.55;3.42;;;;;;;;;;4992927;28;20146;-68
2021/09/20 00:33:57;;;;;;;6.90;3.65;;;;;;;;;;4992052;28;20112;-67
2021/09/20 00:36:25;;;;;;;7.55;4.55;;;;;;;;;;4991430;28;20463;-67
2021/09/20 00:38:53;;;;;;;8.18;4.05;;;;;;;;;;4991856;28;20176;-67
2021/09/20 00:41:23;;;;;;;8.02;4.38;;;;;;;;;;4989101;28;20129;-67
2021/09/20 00:43:52;;;;;;;5.97;3.80;;;;;;;;;;4992799;28;20101;-67
2021/09/20 00:46:20;;;;;;;7.63;4.60;;;;;;;;;;4989002;28;20152;-67
2021/09/20 00:48:48;;;;;;;7.32;4.03;;;;;;;;;;4989191;28;20073;-67
2021/09/20 00:51:17;;;;;;;10.88;4.30;;;;;;;;;;4992565;28;20042;-69
2021/09/20 00:53:45;;;;;;;9.07;4.65;;;;;;;;;;4992204;28;20050;-67
2021/09/20 00:56:14;;;;;;;10.25;4.13;;;;;;;;;;4989910;28;20048;-68
2021/09/20 00:58:43;;;;;;;6.90;4.22;;;;;;;;;;4992068;28;20049;-67
2021/09/20 01:01:12;;;;;;;7.28;4.50;;;;;;;;;;4989366;28;20518;-67
2021/09/20 01:03:41;;;;;;;6.40;4.05;;;;;;;;;;4984362;28;20141;-69
2021/09/20 01:06:10;;;;;;;8.95;5.07;;;;;;;;;;4982957;28;20124;-69
2021/09/20 01:08:38;;;;;;;7.47;4.00;;;;;;;;;;4990743;28;20491;-68
2021/09/20 01:11:07;;;;;;;9.75;4.40;;;;;;;;;;4989449;28;20542;-67
2021/09/20 01:13:35;;;;;;;7.85;4.38;;;;;;;;;;4985151;28;20082;-67
2021/09/20 01:16:05;;;;;;;7.30;4.07;;;;;;;;;;5000511;28;20089;-67
2021/09/20 01:18:33;;;;;;;9.05;4.70;;;;;;;;;;4991020;28;20049;-67
2021/09/20 01:21:02;;;;;;;8.32;4.53;;;;;;;;;;4991320;28;20054;-68
2021/09/20 01:23:31;;;;;;;8.20;4.30;;;;;;;;;;4990650;28;20054;-67
2021/09/20 01:26:00;;;;;;;8.32;4.45;;;;;;;;;;4991551;28;20546;-67
2021/09/20 01:28:28;;;;;;;7.40;4.43;;;;;;;;;;4991469;28;20585;-67
2021/09/20 01:30:57;;;;;;;10.18;4.38;;;;;;;;;;4992801;28;20183;-67
2021/09/20 01:33:25;;;;;;;8.82;4.57;;;;;;;;;;4990854;28;20422;-67
2021/09/20 01:35:53;;;;;;;8.68;4.45;;;;;;;;;;4992517;28;20051;-67
2021/09/20 01:38:22;;;;;;;8.50;4.97;;;;;;;;;;4987781;28;20138;-70
2021/09/20 01:40:52;;;;;;;7.45;4.30;;;;;;;;;;4988565;28;20062;-67
2021/09/20 01:43:20;;;;;;;7.45;4.15;;;;;;;;;;4986052;28;20058;-68
2021/09/20 01:45:49;;;;;;;9.75;4.03;;;;;;;;;;4988535;28;20086;-67
2021/09/20 01:48:18;;;;;;;6.82;4.07;;;;;;;;;;4983549;28;20082;-67
2021/09/20 01:50:47;;;;;;;6.65;3.85;;;;;;;;;;4990207;28;20173;-67
2021/09/20 01:53:15;;;;;;;9.02;4.32;;;;;;;;;;4986910;28;20048;-67
2021/09/20 01:55:44;;;;;;;8.15;4.75;;;;;;;;;;4991917;28;20061;-67
2021/09/20 01:58:13;;;;;;;8.25;4.55;;;;;;;;;;4990879;28;20129;-67
2021/09/20 02:00:45;;;;;;;8.90;4.80;;;;;;;;;;4989046;28;20506;-68
2021/09/20 02:03:14;;;;;;;9.15;4.78;;;;;;;;;;4984488;28;20053;-67
2021/09/20 02:05:43;;;;;;;8.32;4.53;;;;;;;;;;4981352;28;20049;-67
2021/09/20 02:08:11;;;;;;;9.43;4.78;;;;;;;;;;4987437;28;20078;-68
2021/09/20 02:10:39;;;;;;;8.38;4.78;;;;;;;;;;4992268;28;20096;-67
2021/09/20 02:13:08;;;;;;;10.43;5.18;;;;;;;;;;4990947;28;20054;-67
2021/09/20 02:15:37;;;;;;;8.30;4.30;;;;;;;;;;4983816;28;20455;-67
2021/09/20 02:18:06;;;;;;;10.23;4.63;;;;;;;;;;4983968;28;20074;-67
2021/09/20 02:20:34;;;;;;;9.02;4.70;;;;;;;;;;4990142;28;20502;-67
2021/09/20 02:23:02;;;;;;;10.00;5.15;;;;;;;;;;4987447;28;20574;-68
2021/09/20 02:25:31;;;;;;;9.48;5.88;;;;;;;;;;4989234;28;20138;-68
2021/09/20 02:27:59;;;;;;;8.40;4.93;;;;;;;;;;4984139;28;20046;-67
2021/09/20 02:30:27;;;;;;;8.63;4.75;;;;;;;;;;4983850;28;20505;-67
2021/09/20 02:32:57;;;;;;;9.75;4.90;;;;;;;;;;4989651;28;20074;-67
2021/09/20 02:35:26;;;;;;;8.85;5.03;;;;;;;;;;4991163;28;20455;-67
2021/09/20 02:37:54;;;;;;;9.27;5.07;;;;;;;;;;4983401;28;20085;-67
2021/09/20 02:40:22;;;;;;;10.00;4.65;;;;;;;;;;4989343;28;20137;-71
2021/09/20 02:42:51;;;;;;;9.15;4.75;;;;;;;;;;4990532;28;20137;-67
2021/09/20 02:45:20;;;;;;;10.07;5.10;;;;;;;;;;4987587;28;20088;-68
2021/09/20 02:47:48;;;;;;;9.02;4.68;;;;;;;;;;4984932;28;20121;-68
2021/09/20 02:50:18;;;;;;;7.88;5.05;;;;;;;;;;4981759;28;20133;-67
2021/09/20 02:52:47;;;;;;;8.75;4.75;;;;;;;;;;4987154;28;20050;-67
2021/09/20 02:55:15;;;;;;;11.10;5.25;;;;;;;;;;4989164;28;20078;-68
2021/09/20 02:57:44;;;;;;;7.90;5.10;;;;;;;;;;4990631;28;20085;-67
2021/09/20 03:00:13;;;;;;;9.13;5.05;;;;;;;;;;4990453;28;20046;-67
2021/09/20 03:02:42;;;;;;;9.48;5.18;;;;;;;;;;4991538;28;20051;-67
2021/09/20 03:05:11;;;;;;;11.45;6.10;;;;;;;;;;4992138;28;20057;-69
2021/09/20 03:07:40;;;;;;;8.65;4.80;;;;;;;;;;4989004;28;20125;-67
2021/09/20 03:10:09;;;;;;;10.43;5.95;;;;;;;;;;4994514;28;20050;-68
2021/09/20 03:12:38;;;;;;;10.73;5.72;;;;;;;;;;4995521;28;20451;-67
2021/09/20 03:15:08;;;;;;;10.32;5.13;;;;;;;;;;4995417;28;20514;-67
2021/09/20 03:17:36;;;;;;;11.20;5.25;;;;;;;;;;4992248;28;20074;-67
2021/09/20 03:20:06;;;;;;;10.73;5.88;;;;;;;;;;4991257;28;20506;-67
2021/09/20 03:22:35;;;;;;;10.07;5.60;;;;;;;;;;4988901;28;20104;-67
2021/09/20 03:25:05;;;;;;;11.60;5.70;;;;;;;;;;4993605;28;20080;-67
2021/09/20 03:27:51;;;;;;;9.65;4.32;;;;;;;;;;1886610;28;10022822;-67
2021/09/20 03:30:19;;;;;;;10.75;5.60;;;;;;;;;;3955021;28;10000989;-70
2021/09/20 03:32:48;;;;;;;10.02;5.50;;;;;;;;;;4994374;28;20049;-67
2021/09/20 03:35:17;;;;;;;10.38;5.78;;;;;;;;;;4987197;28;20149;-67
2021/09/20 03:37:46;;;;;;;10.40;5.90;;;;;;;;;;4990012;28;20046;-67
2021/09/20 03:40:18;;;;;;;12.57;6.32;;;;;;;;;;4976495;28;20085;-67
2021/09/20 03:42:46;;;;;;;8.85;5.22;;;;;;;;;;4994322;28;20410;-68
2021/09/20 03:45:15;;;;;;;13.00;5.65;;;;;;;;;;4979431;28;20486;-67
2021/09/20 03:47:43;;;;;;;11.18;6.03;;;;;;;;;;4985836;28;20109;-70
2021/09/20 03:50:12;;;;;;;11.57;5.80;;;;;;;;;;4985486;28;20062;-67
2021/09/20 03:52:41;;;;;;;10.00;5.55;;;;;;;;;;4985023;28;20088;-68
2021/09/20 03:55:11;;;;;;;10.40;5.72;;;;;;;;;;4982865;28;20112;-67
2021/09/20 03:57:41;;;;;;;11.95;5.78;;;;;;;;;;4988340;28;20046;-67
2021/09/20 04:00:11;;;;;;;11.80;6.53;;;;;;;;;;4976896;28;20054;-67
2021/09/20 04:02:39;;;;;;;9.85;6.07;;;;;;;;;;4991640;28;20125;-67
2021/09/20 04:05:08;;;;;;;10.55;6.47;;;;;;;;;;4992657;28;20054;-68
2021/09/20 04:07:38;;;;;;;11.45;6.38;;;;;;;;;;4982355;28;20141;-67
2021/09/20 04:10:07;;;;;;;14.13;6.68;;;;;;;;;;4984097;28;20047;-67
2021/09/20 04:12:36;;;;;;;10.68;6.05;;;;;;;;;;4991462;28;20130;-67
2021/09/20 04:15:06;;;;;;;10.65;5.80;;;;;;;;;;4990356;28;20086;-68
2021/09/20 04:17:34;;;;;;;11.88;6.65;;;;;;;;;;4986400;28;20042;-67
2021/09/20 04:20:04;;;;;;;10.60;6.03;;;;;;;;;;4992944;28;20081;-69
2021/09/20 04:22:32;;;;;;;10.57;5.97;;;;;;;;;;4993464;28;20399;-68
2021/09/20 04:25:00;;;;;;;12.10;6.53;;;;;;;;;;4992549;28;20054;-67
2021/09/20 04:27:29;;;;;;;11.40;5.95;;;;;;;;;;4993346;28;20129;-67
2021/09/20 04:29:57;;;;;;;10.70;5.90;;;;;;;;;;4993870;28;20078;-67
2021/09/20 04:32:27;;;;;;;15.93;6.30;;;;;;;;;;4992064;28;20050;-67
2021/09/20 04:34:55;;;;;;;10.25;5.47;;;;;;;;;;4992525;28;20085;-67
2021/09/20 04:37:24;;;;;;;13.40;6.35;;;;;;;;;;4992474;28;20142;-69
2021/09/20 04:39:52;;;;;;;12.63;6.22;;;;;;;;;;4994657;28;20089;-68
2021/09/20 04:42:21;;;;;;;10.15;5.88;;;;;;;;;;4990219;28;20584;-66
2021/09/20 04:44:49;;;;;;;12.07;6.20;;;;;;;;;;4992629;28;20100;-66
2021/09/20 04:47:17;;;;;;;12.43;6.53;;;;;;;;;;4993295;28;20459;-66
2021/09/20 04:49:47;;;;;;;15.90;6.72;;;;;;;;;;4990861;28;20097;-67
2021/09/20 04:52:15;;;;;;;13.77;6.72;;;;;;;;;;4991650;28;20493;-67
2021/09/20 04:54:44;;;;;;;12.02;6.18;;;;;;;;;;4989149;28;20046;-68
2021/09/20 04:57:12;;;;;;;14.73;6.18;;;;;;;;;;4990922;28;20129;-67
2021/09/20 04:59:40;;;;;;;13.57;6.32;;;;;;;;;;4991157;28;20069;-68
2021/09/20 05:02:09;;;;;;;12.23;6.70;;;;;;;;;;4987501;28;20054;-67
2021/09/20 05:04:38;;;;;;;12.25;7.03;;;;;;;;;;4983501;28;20054;-67
2021/09/20 05:07:07;;;;;;;13.00;6.50;;;;;;;;;;4988507;28;20053;-68
2021/09/20 05:09:36;;;;;;;15.30;7.38;;;;;;;;;;4982574;28;20145;-67
2021/09/20 05:12:04;;;;;;;15.27;6.68;;;;;;;;;;4985142;28;20050;-68
2021/09/20 05:14:33;;;;;;;13.80;6.25;;;;;;;;;;4986513;28;20069;-67
2021/09/20 05:17:04;;;;;;;13.30;6.75;;;;;;;;;;4980071;28;20645;-67
2021/09/20 05:19:32;;;;;;;14.07;7.05;;;;;;;;;;4981856;28;20049;-67
2021/09/20 05:22:00;;;;;;;12.45;6.50;;;;;;;;;;4984154;28;20101;-67
2021/09/20 05:24:30;;;;;;;15.13;7.07;;;;;;;;;;4977456;28;20110;-67
2021/09/20 05:26:59;;;;;;;13.23;7.15;;;;;;;;;;4987536;28;20141;-67
2021/09/20 05:29:27;;;;;;;12.50;6.50;;;;;;;;;;4988383;28;20046;-69
2021/09/20 05:31:55;;;;;;;14.13;6.70;;;;;;;;;;4987657;28;20133;-69
2021/09/20 05:34:28;;;;;;;13.00;6.28;;;;;;;;;;4987350;28;20058;-72
2021/09/20 05:36:57;;;;;;;12.15;6.25;;;;;;;;;;4986747;28;20450;-70
2021/09/20 05:39:25;;;;;;;12.20;6.30;;;;;;;;;;4988272;28;20541;-70
2021/09/20 05:41:55;;;;;;;12.43;6.57;;;;;;;;;;4986522;28;20085;-70
2021/09/20 05:44:24;;;;;;;15.43;6.95;;;;;;;;;;4986160;28;20046;-71
2021/09/20 05:46:52;;;;;;;14.82;7.47;;;;;;;;;;4984494;28;20521;-71
2021/09/20 05:49:20;;;;;;;14.00;7.35;;;;;;;;;;4985490;28;20129;-72
2021/09/20 05:51:49;;;;;;;11.63;6.22;;;;;;;;;;4988760;28;20086;-70
2021/09/20 05:54:17;;;;;;;14.38;6.80;;;;;;;;;;4983926;28;20138;-73
2021/09/20 05:56:45;;;;;;;14.32;6.55;;;;;;;;;;4986042;28;20050;-68
2021/09/20 05:59:15;;;;;;;13.18;6.82;;;;;;;;;;4987696;28;20054;-70
2021/09/20 06:01:43;;;;;;;14.73;7.25;;;;;;;;;;4986694;28;20498;-69
2021/09/20 06:04:12;;;;;;;11.63;5.90;;;;;;;;;;4979583;28;20054;-66
2021/09/20 06:06:40;;;;;;;13.70;6.78;;;;;;;;;;4979561;28;20132;-68
2021/09/20 06:09:09;;;;;;;12.57;6.22;;;;;;;;;;4982867;28;20050;-66
2021/09/20 06:11:37;;;;;;;13.93;6.32;;;;;;;;;;4981655;28;20093;-66
2021/09/20 06:14:05;;;;;;;12.25;6.22;;;;;;;;;;4981376;28;20042;-66
2021/09/20 06:16:35;;;;;;;11.30;6.05;;;;;;;;;;4981711;28;20078;-66
2021/09/20 06:19:04;;;;;;;13.23;6.78;;;;;;;;;;4988264;28;20050;-66
2021/09/20 06:21:32;;;;;;;12.93;5.75;;;;;;;;;;4984108;28;20050;-66
2021/09/20 06:24:01;;;;;;;13.15;6.70;;;;;;;;;;4979353;28;20412;-66
2021/09/20 06:26:31;;;;;;;11.70;6.10;;;;;;;;;;4978857;28;20054;-66
2021/09/20 06:29:00;;;;;;;12.75;6.65;;;;;;;;;;4987215;28;20080;-66
2021/09/20 06:31:28;;;;;;;14.10;7.28;;;;;;;;;;4981572;28;20046;-66
2021/09/20 06:33:59;;;;;;;15.88;6.75;;;;;;;;;;4988689;28;20133;-66
2021/09/20 06:36:28;;;;;;;15.52;6.78;;;;;;;;;;4987461;28;20487;-66
2021/09/20 06:38:57;;;;;;;14.07;6.70;;;;;;;;;;4984972;28;20054;-66
2021/09/20 06:41:26;;;;;;;13.15;7.05;;;;;;;;;;4985398;28;20108;-65
2021/09/20 06:43:55;;;;;;;13.73;6.50;;;;;;;;;;4983436;28;20046;-67
2021/09/20 06:46:26;;;;;;;12.05;6.30;;;;;;;;;;4985618;28;20058;-67
2021/09/20 06:48:57;;;;;;;13.23;6.85;;;;;;;;;;4987402;28;20049;-66
2021/09/20 06:51:27;;;;;;;11.63;6.88;;;;;;;;;;4980043;28;20105;-66
2021/09/20 06:53:56;;;;;;;14.68;7.35;;;;;;;;;;4986718;28;20101;-67
2021/09/20 06:56:26;;;;;;;13.43;6.50;;;;;;;;;;4986115;28;20099;-67
2021/09/20 06:58:55;;;;;;;12.35;6.85;;;;;;;;;;4985655;28;20137;-67
2021/09/20 07:01:24;;;;;;;12.30;6.80;;;;;;;;;;4982928;28;20050;-66
2021/09/20 07:03:52;;;;;;;14.10;7.03;;;;;;;;;;4988163;28;20125;-66
2021/09/20 07:06:21;;;;;;;13.75;6.72;;;;;;;;;;4978600;28;20054;-67
2021/09/20 07:08:51;;;;;;;12.68;7.00;;;;;;;;;;4983894;28;20393;-66
2021/09/20 07:11:23;;;;;;;12.52;6.60;;;;;;;;;;4998295;28;20058;-66
2021/09/20 07:13:52;;;;;;;14.57;7.43;;;;;;;;;;4982316;28;20058;-67
2021/09/20 07:16:21;;;;;;;12.60;6.53;;;;;;;;;;4981153;28;20058;-66
2021/09/20 07:18:50;;;;;;;15.25;6.63;;;;;;;;;;4980229;28;20046;-66
2021/09/20 07:21:23;;;;;;;12.27;6.05;;;;;;;;;;4981092;28;20050;-70
2021/09/20 07:23:54;;;;;;;11.55;5.63;;;;;;;;;;4982731;28;20058;-67
2021/09/20 07:26:24;;;;;;;11.45;5.50;;;;;;;;;;4979809;28;20062;-67
2021/09/20 07:28:54;;;;;;;12.10;6.28;;;;;;;;;;4977272;28;20062;-66
2021/09/20 07:31:23;;;;;;;11.88;5.70;;;;;;;;;;4984161;28;20141;-66
2021/09/20 07:33:52;;;;;;;12.25;6.38;;;;;;;;;;4981708;28;20050;-66
2021/09/20 07:36:21;;;;;;;12.13;6.47;;;;;;;;;;4982759;28;20060;-66
2021/09/20 07:38:50;;;;;;;11.18;6.07;;;;;;;;;;4986632;28;20050;-67
2021/09/20 07:41:21;;;;;;;11.52;5.72;;;;;;;;;;4980345;28;20052;-68
2021/09/20 07:43:51;;;;;;;11.27;6.30;;;;;;;;;;4978989;28;20065;-66
2021/09/20 07:46:22;;;;;;;14.43;6.65;;;;;;;;;;4985512;28;20050;-65
2021/09/20 07:48:52;;;;;;;13.93;6.18;;;;;;;;;;4989481;28;20128;-65
2021/09/20 07:51:21;;;;;;;14.50;6.70;;;;;;;;;;4991324;28;20051;-66
2021/09/20 07:53:50;;;;;;;15.27;7.00;;;;;;;;;;4981143;28;20062;-66
2021/09/20 07:56:19;;;;;;;12.27;6.25;;;;;;;;;;4988796;28;20043;-66
2021/09/20 07:58:49;;;;;;;12.18;6.40;;;;;;;;;;4983340;28;20108;-66
2021/09/20 08:01:17;;;;;;;14.10;6.50;;;;;;;;;;4988976;28;20050;-67
2021/09/20 08:03:49;;;;;;;14.93;6.80;;;;;;;;;;4978426;28;20063;-66
2021/09/20 08:06:18;;;;;;;16.55;6.55;;;;;;;;;;4983263;28;20601;-66
2021/09/20 08:08:47;;;;;;;14.65;6.70;;;;;;;;;;4986385;28;20053;-68
2021/09/20 08:11:15;;;;;;;16.20;7.30;;;;;;;;;;4986949;28;20073;-66
2021/09/20 08:13:44;;;;;;;16.30;7.07;;;;;;;;;;4980948;28;20064;-68
2021/09/20 08:16:15;;;;;;;16.58;6.70;;;;;;;;;;4986616;28;20062;-68
2021/09/20 08:18:44;;;;;;;14.98;7.28;;;;;;;;;;4977711;28;20051;-66
2021/09/20 08:21:13;;;;;;;12.50;6.57;;;;;;;;;;4986970;28;20054;-66
2021/09/20 08:23:41;;;;;;;13.57;6.85;;;;;;;;;;4987253;28;20533;-67
2021/09/20 08:26:10;;;;;;;12.85;6.22;;;;;;;;;;4977044;28;20116;-67
2021/09/20 08:28:39;;;;;;;16.15;7.25;;;;;;;;;;4988364;28;20663;-66
2021/09/20 08:31:08;;;;;;;15.52;7.05;;;;;;;;;;4987375;28;20057;-66
2021/09/20 08:33:41;;;;;;;11.43;5.65;;;;;;;;;;4972834;28;20522;-67
2021/09/20 08:36:11;;;;;;;14.00;6.50;;;;;;;;;;4985255;28;20086;-67
2021/09/20 08:38:41;;;;;;;13.32;6.80;;;;;;;;;;4975199;28;20054;-67
2021/09/20 08:41:10;;;;;;;12.68;6.63;;;;;;;;;;4988641;28;20101;-67
2021/09/20 08:43:39;;;;;;;12.00;6.75;;;;;;;;;;4985428;28;20050;-67
2021/09/20 08:46:08;;;;;;;11.70;6.03;;;;;;;;;;4987687;28;20062;-66
2021/09/20 08:48:41;;;;;;;10.90;5.72;;;;;;;;;;4988408;28;20054;-68
2021/09/20 08:51:09;;;;;;;9.63;5.10;;;;;;;;;;4985975;28;20085;-68
2021/09/20 08:53:39;;;;;;;13.48;5.10;;;;;;;;;;4981771;28;20046;-66
2021/09/20 08:56:08;;;;;;;12.57;5.50;;;;;;;;;;4988840;28;20046;-66
2021/09/20 08:58:36;;;;;;;10.18;5.15;;;;;;;;;;4981742;28;20058;-66
2021/09/20 09:01:05;;;;;;;8.13;4.80;;;;;;;;;;4987086;28;20554;-67
2021/09/20 09:03:36;;;;;;;9.30;5.30;;;;;;;;;;4989264;28;20046;-66
2021/09/20 09:06:06;;;;;;;8.82;4.78;;;;;;;;;;4987011;28;20054;-67
2021/09/20 09:08:36;;;;;;;10.00;4.50;;;;;;;;;;4985379;28;20502;-67
2021/09/20 09:11:08;;;;;;;9.73;5.07;;;;;;;;;;4985706;28;20058;-66
2021/09/20 09:13:39;;;;;;;9.82;4.90;;;;;;;;;;4989296;28;20054;-66
2021/09/20 09:16:16;;;;;;;9.85;4.95;;;;;;;;;;4979469;28;20050;-67
2021/09/20 09:19:05;;;;;;;10.52;4.78;;;;;;;;;;4986900;28;20051;-66
2021/09/20 09:21:43;;;;;;;11.88;5.50;;;;;;;;;;4983669;28;20129;-67
2021/09/20 09:24:13;;;;;;;10.82;4.93;;;;;;;;;;4987977;28;20046;-67
2021/09/20 09:26:54;;;;;;;10.77;5.25;;;;;;;;;;4990010;28;20058;-67
2021/09/20 09:29:23;;;;;;;10.27;4.80;;;;;;;;;;4986541;28;20129;-66
2021/09/20 09:31:53;;;;;;;13.18;5.70;;;;;;;;;;4973072;28;20054;-66
2021/09/20 09:34:22;;;;;;;10.80;4.95;;;;;;;;;;4974938;28;20058;-67
2021/09/20 09:36:52;;;;;;;11.48;4.97;;;;;;;;;;4986541;28;20062;-66
2021/09/20 09:39:27;;;;;;;8.75;4.47;;;;;;;;;;4989988;28;20054;-67
2021/09/20 09:41:56;;;;;;;9.85;4.60;;;;;;;;;;4987934;28;20073;-66
2021/09/20 09:44:28;;;;;;;11.85;5.18;;;;;;;;;;4981443;28;20078;-66
2021/09/20 09:46:57;;;;;;;11.43;5.38;;;;;;;;;;4987918;28;20415;-66
2021/09/20 09:49:27;;;;;;;9.07;4.82;;;;;;;;;;4988215;28;20058;-66
2021/09/20 09:52:04;;;;;;;8.70;4.63;;;;;;;;;;4977360;28;20057;-66
2021/09/20 09:54:41;;;;;;;9.55;4.82;;;;;;;;;;4981356;28;20100;-67
2021/09/20 09:57:17;;;;;;;8.30;4.20;;;;;;;;;;4985989;28;20050;-66
2021/09/20 09:59:54;;;;;;;11.15;5.20;;;;;;;;;;4989715;28;20101;-66
2021/09/20 10:02:25;;;;;;;10.57;4.85;;;;;;;;;;4984242;28;20085;-66
2021/09/20 10:05:09;;;;;;;10.23;5.00;;;;;;;;;;4990201;28;20062;-66
2021/09/20 10:07:40;;;;;;;10.00;5.00;;;;;;;;;;4984143;28;20054;-67
2021/09/20 10:10:15;;;;;;;10.50;5.28;;;;;;;;;;4987654;28;20081;-66
2021/09/20 10:12:51;;;;;;;11.82;5.53;;;;;;;;;;4988606;28;20136;-66
2021/09/20 10:15:20;;;;;;;9.55;5.28;;;;;;;;;;4979149;28;20139;-69
2021/09/20 10:17:52;;;;;;;8.00;4.78;;;;;;;;;;4977551;28;20140;-66
2021/09/20 10:20:22;;;;;;;10.32;4.55;;;;;;;;;;4985873;28;20077;-67
2021/09/20 10:22:56;;;;;;;10.02;5.38;;;;;;;;;;4985442;28;20054;-67
2021/09/20 10:25:25;;;;;;;10.73;5.00;;;;;;;;;;4977579;28;20047;-66
2021/09/20 10:27:54;;;;;;;8.77;4.68;;;;;;;;;;4980857;28;20085;-66
2021/09/20 10:30:25;;;;;;;9.93;5.30;;;;;;;;;;4990248;28;20064;-67
2021/09/20 10:32:54;;;;;;;7.32;3.97;;;;;;;;;;4980325;28;20084;-67
2021/09/20 10:35:31;;;;;;;7.97;3.95;;;;;;;;;;4985750;28;20062;-67
2021/09/20 10:38:03;;;;;;;8.93;4.28;;;;;;;;;;4979634;28;20101;-67
2021/09/20 10:40:37;;;;;;;10.00;4.70;;;;;;;;;;4978465;28;20133;-67
2021/09/20 10:43:07;;;;;;;8.82;4.45;;;;;;;;;;4983694;28;20065;-67
2021/09/20 10:45:37;;;;;;;10.25;4.13;;;;;;;;;;4986426;28;20046;-66
2021/09/20 10:48:23;;;;;;;8.43;3.75;;;;;;;;;;4986648;28;20057;-67
2021/09/20 10:50:53;;;;;;;8.10;4.28;;;;;;;;;;4989860;28;20112;-66
2021/09/20 10:53:29;;;;;;;7.93;4.20;;;;;;;;;;4989020;28;20050;-67
2021/09/20 10:56:11;;;;;;;8.38;4.20;;;;;;;;;;4987791;28;20078;-66
2021/09/20 10:58:41;;;;;;;7.07;4.28;;;;;;;;;;4989578;28;20108;-67
2021/09/20 11:01:28;;;;;;;6.50;4.03;;;;;;;;;;4985045;28;20061;-66
2021/09/20 11:03:59;;;;;;;10.65;4.80;;;;;;;;;;4979662;28;20562;-67
2021/09/20 11:06:36;;;;;;;8.40;4.28;;;;;;;;;;4984621;28;20050;-67
2021/09/20 11:09:33;;;;;;;6.68;3.80;;;;;;;;;;4982923;28;21002;-67
2021/09/20 11:12:06;;;;;;;8.98;4.80;;;;;;;;;;4985675;28;20054;-67
2021/09/20 11:14:43;;;;;;;9.70;4.57;;;;;;;;;;4978939;28;20057;-67
2021/09/20 11:17:18;;;;;;;7.03;4.45;;;;;;;;;;4990861;28;20062;-66
2021/09/20 11:19:56;;;;;;;9.95;4.95;;;;;;;;;;4991223;28;20105;-66
2021/09/20 11:22:29;;;;;;;9.45;4.97;;;;;;;;;;4992444;28;20092;-67
2021/09/20 11:25:04;;;;;;;8.85;4.15;;;;;;;;;;4975589;28;20720;-66
2021/09/20 11:27:34;;;;;;;10.82;5.13;;;;;;;;;;4994285;28;20133;-66
2021/09/20 11:30:08;;;;;;;9.15;4.70;;;;;;;;;;4975090;28;20043;-67
2021/09/20 11:32:43;;;;;;;9.00;4.88;;;;;;;;;;4989363;28;20051;-66
2021/09/20 11:35:12;;;;;;;9.27;5.15;;;;;;;;;;4993887;28;20058;-67
2021/09/20 11:37:41;;;;;;;10.40;4.80;;;;;;;;;;4988496;28;20417;-66
2021/09/20 11:40:12;;;;;;;9.23;4.88;;;;;;;;;;4988111;28;20105;-66
2021/09/20 11:42:43;;;;;;;9.63;4.53;;;;;;;;;;4992301;28;20046;-67
2021/09/20 11:45:13;;;;;;;8.38;4.63;;;;;;;;;;4991186;28;20062;-67
2021/09/20 11:47:44;;;;;;;9.85;5.00;;;;;;;;;;4992251;28;20061;-69
2021/09/20 11:50:19;;;;;;;12.68;4.18;;;;;;;;;;4978452;28;20124;-68
2021/09/20 11:52:50;;;;;;;8.40;4.57;;;;;;;;;;4976660;28;20051;-66
2021/09/20 11:55:21;;;;;;;10.52;5.30;;;;;;;;;;4984204;28;20059;-67
2021/09/20 11:57:50;;;;;;;11.65;4.68;;;;;;;;;;4988535;28;20062;-66
2021/09/20 12:00:20;;;;;;;10.77;5.13;;;;;;;;;;4994311;28;20495;-67
2021/09/20 12:02:56;;;;;;;10.05;4.45;;;;;;;;;;4980767;28;20121;-66
2021/09/20 12:05:27;;;;;;;8.18;4.47;;;;;;;;;;4974136;28;20074;-68
2021/09/20 12:07:58;;;;;;;9.60;4.50;;;;;;;;;;4992097;28;20056;-67
2021/09/20 12:10:30;;;;;;;10.80;5.65;;;;;;;;;;4994045;28;20055;-66
2021/09/20 12:13:03;;;;;;;9.40;4.57;;;;;;;;;;4988894;28;20232;-68
2021/09/20 12:15:33;;;;;;;11.10;5.13;;;;;;;;;;4988470;28;20438;-66
2021/09/20 12:18:03;;;;;;;11.48;5.82;;;;;;;;;;4992278;28;20527;-67
2021/09/20 12:20:34;;;;;;;10.48;5.40;;;;;;;;;;4991749;28;20553;-67
2021/09/20 12:23:11;;;;;;;9.40;4.93;;;;;;;;;;4993071;28;20434;-65
2021/09/20 12:25:49;;;;;;;8.88;5.40;;;;;;;;;;4992083;28;20073;-66
2021/09/20 12:28:20;;;;;;;10.43;4.88;;;;;;;;;;4994020;28;20058;-67
2021/09/20 12:30:57;;;;;;;11.48;5.40;;;;;;;;;;4980616;28;20054;-66
2021/09/20 12:33:27;;;;;;;11.43;5.75;;;;;;;;;;4987252;28;20073;-66
2021/09/20 12:35:56;;;;;;;9.82;4.70;;;;;;;;;;4988619;28;20460;-67
2021/09/20 12:38:34;;;;;;;9.95;5.43;;;;;;;;;;4993173;28;20046;-67
2021/09/20 12:41:15;;;;;;;8.18;4.55;;;;;;;;;;4990622;28;20133;-67
2021/09/20 12:43:45;;;;;;;8.45;4.53;;;;;;;;;;4992729;28;20411;-68
2021/09/20 12:46:17;;;;;;;9.05;5.20;;;;;;;;;;4988996;28;20057;-68
2021/09/20 12:48:47;;;;;;;9.10;4.85;;;;;;;;;;4981343;28;20043;-67
2021/09/20 12:51:17;;;;;;;9.57;4.72;;;;;;;;;;4990920;28;20057;-67
2021/09/20 12:53:52;;;;;;;8.10;4.45;;;;;;;;;;4990804;28;20077;-67
2021/09/20 12:56:30;;;;;;;11.00;4.50;;;;;;;;;;4989854;28;20150;-67
2021/09/20 12:59:16;;;;;;;10.02;4.53;;;;;;;;;;4992384;28;20145;-66
2021/09/20 13:01:56;;;;;;;6.90;4.00;;;;;;;;;;4989544;28;20065;-67
2021/09/20 13:04:26;;;;;;;8.38;4.50;;;;;;;;;;4977807;28;20061;-67
2021/09/20 13:06:59;;;;;;;7.20;4.13;;;;;;;;;;4987347;28;20054;-67
2021/09/20 13:09:27;;;;;;;9.30;4.45;;;;;;;;;;4989724;28;20074;-67
2021/09/20 13:12:03;;;;;;;11.18;4.85;;;;;;;;;;4981024;28;20053;-66
2021/09/20 13:14:33;;;;;;;7.13;3.95;;;;;;;;;;4982277;28;20046;-67
2021/09/20 13:17:07;;;;;;;7.45;4.15;;;;;;;;;;4986926;28;20050;-66
2021/09/20 13:19:36;;;;;;;7.07;4.37;;;;;;;;;;4987697;28;20639;-66
2021/09/20 13:22:08;;;;;;;6.95;4.00;;;;;;;;;;4990448;28;20141;-67
2021/09/20 13:24:38;;;;;;;6.72;4.00;;;;;;;;;;4991451;28;20557;-66
2021/09/20 13:27:19;;;;;;;6.65;4.00;;;;;;;;;;4980148;28;20053;-66
2021/09/20 13:29:47;;;;;;;7.53;4.18;;;;;;;;;;4990528;28;20046;-66
2021/09/20 13:32:16;;;;;;;6.75;3.95;;;;;;;;;;4991647;28;20116;-66
2021/09/20 13:34:46;;;;;;;6.45;3.85;;;;;;;;;;4990115;28;20136;-66
2021/09/20 13:37:15;;;;;;;7.93;4.00;;;;;;;;;;4988900;28;20085;-66
2021/09/20 13:39:44;;;;;;;8.05;4.75;;;;;;;;;;4980872;28;20050;-67
2021/09/20 13:42:13;;;;;;;8.57;4.35;;;;;;;;;;4990124;28;20053;-67
2021/09/20 13:44:43;;;;;;;7.47;3.80;;;;;;;;;;4989904;28;20054;-67
2021/09/20 13:47:12;;;;;;;5.40;3.63;;;;;;;;;;4984542;28;20053;-66
2021/09/20 13:49:42;;;;;;;4.75;2.97;;;;;;;;;;4988706;28;20048;-66
2021/09/20 13:52:11;;;;;;;4.47;3.20;;;;;;;;;;4982703;28;20082;-66
2021/09/20 13:54:40;;;;;;;7.07;3.65;;;;;;;;;;4992320;28;20046;-66
2021/09/20 13:57:08;;;;;;;5.10;3.25;;;;;;;;;;4993316;28;20494;-65
2021/09/20 13:59:37;;;;;;;4.93;3.13;;;;;;;;;;4992289;28;20047;-65
2021/09/20 14:02:07;;;;;;;7.43;3.83;;;;;;;;;;4985102;28;20137;-65
2021/09/20 14:04:36;;;;;;;6.00;3.70;;;;;;;;;;4990166;28;20057;-65
2021/09/20 14:07:05;;;;;;;5.40;3.33;;;;;;;;;;4989869;28;20050;-66
2021/09/20 14:09:33;;;;;;;6.88;4.10;;;;;;;;;;4988979;28;20109;-66
2021/09/20 14:12:02;;;;;;;5.70;3.67;;;;;;;;;;4982151;28;20090;-68
2021/09/20 14:14:30;;;;;;;7.22;3.97;;;;;;;;;;4963437;28;20074;-66
2021/09/20 14:16:59;;;;;;;6.15;3.67;;;;;;;;;;4970240;28;20062;-66
2021/09/20 14:19:30;;;;;;;7.93;3.65;;;;;;;;;;4969879;28;20108;-65
2021/09/20 14:21:59;;;;;;;6.82;3.70;;;;;;;;;;4964847;28;20058;-66
2021/09/20 14:24:27;;;;;;;7.70;3.28;;;;;;;;;;4970943;28;20051;-66
2021/09/20 14:26:56;;;;;;;6.32;3.88;;;;;;;;;;4959649;28;20495;-65
2021/09/20 14:29:25;;;;;;;6.82;3.67;;;;;;;;;;4970844;28;20047;-66
2021/09/20 14:31:54;;;;;;;6.13;3.55;;;;;;;;;;4971424;28;20042;-65
2021/09/20 14:34:25;;;;;;;5.97;3.72;;;;;;;;;;4983483;28;20050;-65
2021/09/20 14:36:55;;;;;;;6.78;3.78;;;;;;;;;;4986639;28;20057;-68
2021/09/20 14:39:24;;;;;;;7.25;3.88;;;;;;;;;;4984953;28;20042;-67
2021/09/20 14:41:53;;;;;;;7.90;4.57;;;;;;;;;;4989719;28;20085;-65
2021/09/20 14:44:22;;;;;;;6.80;4.00;;;;;;;;;;4989662;28;20054;-66
2021/09/20 14:46:51;;;;;;;7.05;4.13;;;;;;;;;;4988299;28;20046;-65
2021/09/20 14:49:20;;;;;;;6.30;3.78;;;;;;;;;;4985736;28;20050;-66
2021/09/20 14:51:49;;;;;;;8.15;4.68;;;;;;;;;;4988828;28;20073;-66
2021/09/20 14:54:19;;;;;;;7.55;3.67;;;;;;;;;;4990981;28;20046;-67